createdAt,value
2018-04-22T00:01:57.744Z,98057.97
2018-04-22T00:04:25.370Z,98053.18
2018-04-22T00:06:52.967Z,98052.91
2018-04-22T00:09:20.594Z,98056.73
2018-04-22T00:11:48.194Z,98051.59
2018-04-22T00:14:15.826Z,98053.43
2018-04-22T00:16:43.422Z,98055.38
2018-04-22T00:19:11.056Z,98047.23
2018-04-22T00:21:38.656Z,98042.92
2018-04-22T00:24:06.454Z,98038.28
2018-04-22T00:26:34.050Z,98039.12
2018-04-22T00:29:01.697Z,98036.59
2018-04-22T00:31:29.302Z,98042.19
2018-04-22T00:33:56.917Z,98042.59
2018-04-22T00:36:24.513Z,98039.81
2018-04-22T00:38:52.158Z,98039.53
2018-04-22T00:41:19.770Z,98038.29
2018-04-22T00:43:47.355Z,98032.03
2018-04-22T00:46:14.970Z,98029.89
2018-04-22T00:48:42.575Z,98027.01
2018-04-22T00:51:10.194Z,98027.32
2018-04-22T00:53:49.450Z,98033.19
2018-04-22T00:56:17.274Z,98028.45
2018-04-22T00:58:44.951Z,98031.30
2018-04-22T01:01:12.551Z,98026.45
2018-04-22T01:03:40.170Z,98024.55
2018-04-22T01:06:07.778Z,98026.78
2018-04-22T01:08:35.395Z,98027.31
2018-04-22T01:11:02.989Z,98027.41
2018-04-22T01:13:30.982Z,98021.05
2018-04-22T01:15:58.577Z,98019.52
2018-04-22T01:18:26.192Z,98017.08
2018-04-22T01:20:53.811Z,98014.39
2018-04-22T01:23:21.413Z,98014.77
2018-04-22T01:25:49.232Z,98013.30
2018-04-22T01:28:16.835Z,98016.59
2018-04-22T01:30:44.441Z,98025.23
2018-04-22T01:33:12.059Z,98014.05
2018-04-22T01:35:39.651Z,98017.06
2018-04-22T01:38:07.451Z,98019.98
2018-04-22T01:40:35.061Z,98020.32
2018-04-22T01:43:02.730Z,98022.78
2018-04-22T01:45:30.354Z,98013.55
2018-04-22T01:47:57.971Z,98014.51
2018-04-22T01:50:25.602Z,98003.61
2018-04-22T01:52:53.852Z,98011.92
2018-04-22T01:55:21.454Z,98008.92
2018-04-22T01:57:49.083Z,98003.55
2018-04-22T02:00:16.678Z,98005.38
2018-04-22T02:02:44.322Z,98009.66
2018-04-22T02:05:11.915Z,98008.58
2018-04-22T02:07:39.532Z,98002.20
2018-04-22T02:10:07.171Z,98004.94
2018-04-22T02:12:34.776Z,98003.05
2018-04-22T02:15:02.448Z,98001.91
2018-04-22T02:17:30.050Z,98005.88
2018-04-22T02:19:57.651Z,98000.95
2018-04-22T02:22:25.281Z,97998.35
2018-04-22T02:24:52.882Z,97999.80
2018-04-22T02:27:20.530Z,98003.23
2018-04-22T02:29:48.126Z,98010.09
2018-04-22T02:32:15.718Z,98003.71
2018-04-22T02:34:43.351Z,98009.77
2018-04-22T02:37:10.951Z,98004.23
2018-04-22T02:39:39.718Z,98008.97
2018-04-22T02:42:07.319Z,98007.29
2018-04-22T02:44:34.918Z,98006.49
2018-04-22T02:47:02.594Z,98000.90
2018-04-22T02:49:30.197Z,97995.13
2018-04-22T02:51:57.963Z,98004.17
2018-04-22T02:54:25.555Z,98004.02
2018-04-22T02:56:53.161Z,98002.77
2018-04-22T02:59:20.779Z,98004.45
2018-04-22T03:01:49.407Z,98000.15
2018-04-22T03:04:17.040Z,98004.63
2018-04-22T03:06:44.652Z,98006.22
2018-04-22T03:09:12.287Z,98004.97
2018-04-22T03:11:39.899Z,97996.52
2018-04-22T03:14:07.498Z,97998.32
2018-04-22T03:16:35.122Z,97994.59
2018-04-22T03:19:02.823Z,97992.45
2018-04-22T03:21:30.458Z,97983.34
2018-04-22T03:23:58.051Z,97984.17
2018-04-22T03:26:25.818Z,97983.34
2018-04-22T03:28:53.406Z,97982.38
2018-04-22T03:31:21.806Z,97985.09
2018-04-22T03:33:49.433Z,97984.63
2018-04-22T03:36:17.047Z,97983.34
2018-04-22T03:38:44.682Z,97986.25
2018-04-22T03:41:12.282Z,97978.20
2018-04-22T03:43:40.198Z,97978.20
2018-04-22T03:46:07.799Z,97979.89
2018-04-22T03:48:35.399Z,97979.95
2018-04-22T03:51:03.022Z,97974.86
2018-04-22T03:53:30.624Z,97973.97
2018-04-22T03:55:58.270Z,97974.59
2018-04-22T03:58:25.866Z,97971.65
2018-04-22T04:00:53.469Z,97970.52
2018-04-22T04:03:21.091Z,97969.73
2018-04-22T04:05:48.687Z,97972.44
2018-04-22T04:08:16.310Z,97972.64
2018-04-22T04:10:43.904Z,97970.22
2018-04-22T04:13:11.730Z,97971.75
2018-04-22T04:15:39.341Z,97966.72
2018-04-22T04:21:33.186Z,97973.73
2018-04-22T04:27:42.178Z,97973.27
2018-04-22T04:30:09.806Z,97973.17
2018-04-22T04:32:37.419Z,97973.34
2018-04-22T04:35:05.324Z,97974.44
2018-04-22T04:37:32.926Z,97980.59
2018-04-22T04:40:00.534Z,97980.98
2018-04-22T04:42:28.155Z,97980.03
2018-04-22T04:44:55.755Z,97976.52
2018-04-22T04:47:23.380Z,97977.34
2018-04-22T04:49:50.979Z,97978.63
2018-04-22T04:52:18.756Z,97978.46
2018-04-22T04:54:46.368Z,97980.78
2018-04-22T04:57:13.993Z,97983.96
2018-04-22T04:59:41.706Z,97985.48
2018-04-22T05:02:09.303Z,97983.33
2018-04-22T05:04:36.920Z,97983.30
2018-04-22T05:07:04.521Z,97980.42
2018-04-22T05:09:32.162Z,97982.16
2018-04-22T05:11:59.757Z,97986.22
2018-04-22T05:14:27.352Z,97984.47
2018-04-22T05:16:54.978Z,97985.89
2018-04-22T05:19:22.581Z,97988.21
2018-04-22T05:21:50.207Z,97987.88
2018-04-22T05:24:17.846Z,97983.81
2018-04-22T05:26:45.482Z,97985.66
2018-04-22T05:29:13.083Z,97985.73
2018-04-22T05:31:40.805Z,97982.12
2018-04-22T05:34:08.433Z,97986.29
2018-04-22T05:36:36.028Z,97992.72
2018-04-22T05:39:03.661Z,97992.81
2018-04-22T05:41:31.263Z,97987.41
2018-04-22T05:43:59.050Z,97982.37
2018-04-22T05:46:26.652Z,97980.28
2018-04-22T05:48:54.271Z,97981.37
2018-04-22T05:51:21.891Z,97983.75
2018-04-22T05:53:49.503Z,97983.56
2018-04-22T05:56:17.134Z,97985.64
2018-04-22T05:58:44.735Z,97990.14
2018-04-22T06:01:12.580Z,97984.98
2018-04-22T06:03:40.182Z,97981.25
2018-04-22T06:06:07.873Z,97985.43
2018-04-22T06:08:35.527Z,97985.48
2018-04-22T06:11:03.118Z,97987.58
2018-04-22T06:16:04.498Z,97984.73
2018-04-22T06:18:32.266Z,97978.15
2018-04-22T06:20:59.869Z,97977.94
2018-04-22T06:23:27.471Z,97978.60
2018-04-22T06:25:55.089Z,97981.82
2018-04-22T06:28:22.709Z,97972.94
2018-04-22T06:30:50.331Z,97974.96
2018-04-22T06:33:17.942Z,97969.87
2018-04-22T06:35:45.696Z,97965.11
2018-04-22T06:38:13.292Z,97964.02
2018-04-22T06:40:40.902Z,97970.48
2018-04-22T06:43:08.514Z,97963.79
2018-04-22T06:45:36.114Z,97964.93
2018-04-22T06:48:03.736Z,97967.55
2018-04-22T06:50:31.330Z,97959.51
2018-04-22T06:52:59.130Z,97962.08
2018-04-22T06:55:26.722Z,97961.39
2018-04-22T06:57:54.313Z,97955.43
2018-04-22T07:00:21.950Z,97958.60
2018-04-22T07:02:49.554Z,97957.14
2018-04-22T07:05:17.191Z,97961.19
2018-04-22T07:07:44.793Z,97961.04
2018-04-22T07:10:12.436Z,97958.70
2018-04-22T07:12:40.037Z,97953.25
2018-04-22T07:15:07.633Z,97953.54
2018-04-22T07:17:35.255Z,97953.92
2018-04-22T07:20:02.852Z,97946.56
2018-04-22T07:22:30.479Z,97946.38
2018-04-22T07:24:58.074Z,97947.14
2018-04-22T07:27:26.045Z,97943.48
2018-04-22T07:29:53.643Z,97949.61
2018-04-22T07:32:21.268Z,97947.55
2018-04-22T07:34:48.996Z,97948.28
2018-04-22T07:37:16.628Z,97944.83
2018-04-22T07:39:44.255Z,97949.25
2018-04-22T07:42:12.003Z,97948.08
2018-04-22T07:44:39.625Z,97944.73
2018-04-22T07:47:07.257Z,97944.52
2018-04-22T07:49:34.862Z,97942.55
2018-04-22T07:52:02.488Z,97933.44
2018-04-22T07:54:30.078Z,97934.16
2018-04-22T07:56:57.708Z,97936.11
2018-04-22T07:59:25.311Z,97934.47
2018-04-22T08:01:52.906Z,97928.98
2018-04-22T08:04:20.549Z,97933.72
2018-04-22T08:06:48.164Z,97933.95
2018-04-22T08:09:15.808Z,97930.34
2018-04-22T08:11:43.406Z,97924.33
2018-04-22T08:14:11.009Z,97924.95
2018-04-22T08:16:38.631Z,97923.48
2018-04-22T08:19:06.230Z,97920.01
2018-04-22T08:21:33.849Z,97923.28
2018-04-22T08:24:01.503Z,97918.91
2018-04-22T08:26:29.102Z,97915.44
2018-04-22T08:28:56.724Z,97916.98
2018-04-22T08:31:24.681Z,97922.41
2018-04-22T08:33:52.504Z,97913.69
2018-04-22T08:36:20.095Z,97923.05
2018-04-22T08:38:47.711Z,97912.42
2018-04-22T08:41:15.343Z,97916.78
2018-04-22T08:43:42.961Z,97911.77
2018-04-22T08:46:10.582Z,97919.66
2018-04-22T08:48:38.177Z,97917.73
2018-04-22T08:51:05.806Z,97917.12
2018-04-22T08:53:33.402Z,97913.92
2018-04-22T08:56:01.044Z,97913.20
2018-04-22T08:58:29.197Z,97915.97
2018-04-22T09:00:56.823Z,97915.60
2018-04-22T09:03:24.445Z,97916.64
2018-04-22T09:05:52.047Z,97917.14
2018-04-22T09:08:19.659Z,97912.14
2018-04-22T09:10:47.274Z,97907.50
2018-04-22T09:13:14.900Z,97906.84
2018-04-22T09:15:42.523Z,97909.88
2018-04-22T09:18:10.140Z,97900.85
2018-04-22T09:20:37.752Z,97901.03
2018-04-22T09:23:05.431Z,97899.27
2018-04-22T09:25:33.024Z,97899.66
2018-04-22T09:28:00.689Z,97894.75
2018-04-22T09:30:28.269Z,97893.57
2018-04-22T09:32:55.915Z,97890.61
2018-04-22T09:35:23.515Z,97888.98
2018-04-22T09:37:51.129Z,97888.84
2018-04-22T09:40:18.743Z,97880.63
2018-04-22T09:42:46.341Z,97880.23
2018-04-22T09:45:13.969Z,97872.45
2018-04-22T09:47:41.585Z,97875.55
2018-04-22T09:50:09.210Z,97876.08
2018-04-22T09:52:36.818Z,97873.80
2018-04-22T09:55:04.437Z,97874.47
2018-04-22T09:57:32.022Z,97868.47
2018-04-22T09:59:59.635Z,97863.25
2018-04-22T10:02:33.222Z,97859.75
2018-04-22T10:05:06.310Z,97857.03
2018-04-22T10:07:33.902Z,97850.34
2018-04-22T10:10:01.520Z,97846.42
2018-04-22T10:12:29.261Z,97846.22
2018-04-22T10:14:56.881Z,97835.23
2018-04-22T10:17:24.475Z,97830.72
2018-04-22T10:19:52.098Z,97831.29
2018-04-22T10:22:19.698Z,97827.55
2018-04-22T10:24:47.381Z,97826.57
2018-04-22T10:27:14.982Z,97826.76
2018-04-22T10:29:43.032Z,97826.76
2018-04-22T10:32:10.639Z,97816.90
2018-04-22T10:34:38.288Z,97813.14
2018-04-22T10:37:05.876Z,97809.56
2018-04-22T10:39:33.531Z,97813.30
2018-04-22T10:42:01.196Z,97806.16
2018-04-22T10:44:28.839Z,97803.41
2018-04-22T10:46:56.456Z,97802.62
2018-04-22T10:49:24.049Z,97800.91
2018-04-22T10:51:51.682Z,97799.36
2018-04-22T10:54:19.291Z,97794.62
2018-04-22T10:56:46.915Z,97782.40
2018-04-22T10:59:14.512Z,97781.62
2018-04-22T11:01:42.146Z,97780.82
2018-04-22T11:04:09.746Z,97778.62
2018-04-22T11:06:37.358Z,97780.41
2018-04-22T11:09:05.698Z,97777.48
2018-04-22T11:11:33.329Z,97775.89
2018-04-22T11:14:01.024Z,97768.81
2018-04-22T11:16:28.648Z,97767.63
2018-04-22T11:18:56.242Z,97760.14
2018-04-22T11:21:23.867Z,97770.55
2018-04-22T11:23:52.224Z,97764.47
2018-04-22T11:26:19.870Z,97759.16
2018-04-22T11:28:47.470Z,97756.40
2018-04-22T11:31:15.089Z,97756.80
2018-04-22T11:33:42.681Z,97748.33
2018-04-22T11:36:10.306Z,97747.74
2018-04-22T11:38:37.922Z,97745.56
2018-04-22T11:41:05.539Z,97747.34
2018-04-22T11:43:33.126Z,97744.19
2018-04-22T11:46:00.743Z,97739.80
2018-04-22T11:48:28.329Z,97736.30
2018-04-22T11:50:55.940Z,97735.98
2018-04-22T11:53:23.539Z,97737.05
2018-04-22T11:55:51.173Z,97730.75
2018-04-22T11:58:18.762Z,97727.82
2018-04-22T12:00:46.360Z,97738.86
2018-04-22T12:03:13.975Z,97728.63
2018-04-22T12:05:41.581Z,97728.44
2018-04-22T12:08:09.311Z,97723.89
2018-04-22T12:10:36.946Z,97718.35
2018-04-22T12:13:04.535Z,97720.33
2018-04-22T12:15:32.154Z,97720.87
2018-04-22T12:17:59.742Z,97707.86
2018-04-22T12:20:27.484Z,97709.45
2018-04-22T12:22:55.494Z,97715.27
2018-04-22T12:25:23.129Z,97717.55
2018-04-22T12:27:50.717Z,97713.51
2018-04-22T12:30:18.319Z,97709.61
2018-04-22T12:32:45.923Z,97711.95
2018-04-22T12:35:13.506Z,97705.92
2018-04-22T12:37:41.139Z,97710.33
2018-04-22T12:40:08.733Z,97703.48
2018-04-22T12:42:36.342Z,97703.62
2018-04-22T12:45:03.952Z,97702.43
2018-04-22T12:47:31.574Z,97698.33
2018-04-22T12:49:59.162Z,97695.58
2018-04-22T12:52:26.815Z,97694.66
2018-04-22T12:54:54.456Z,97689.42
2018-04-22T12:57:22.203Z,97682.99
2018-04-22T12:59:49.793Z,97681.55
2018-04-22T13:02:17.386Z,97686.03
2018-04-22T13:04:45.006Z,97681.17
2018-04-22T13:07:12.589Z,97670.53
2018-04-22T13:09:40.209Z,97668.53
2018-04-22T13:12:07.808Z,97673.88
2018-04-22T13:14:35.935Z,97674.23
2018-04-22T13:17:03.530Z,97675.65
2018-04-22T13:19:31.126Z,97673.63
2018-04-22T13:21:58.738Z,97666.30
2018-04-22T13:24:26.327Z,97661.86
2018-04-22T13:26:53.940Z,97658.98
2018-04-22T13:29:21.530Z,97659.05
2018-04-22T13:31:49.273Z,97654.13
2018-04-22T13:34:16.861Z,97649.25
2018-04-22T13:36:44.452Z,97639.62
2018-04-22T13:39:12.061Z,97642.26
2018-04-22T13:41:39.654Z,97633.10
2018-04-22T13:44:07.259Z,97631.28
2018-04-22T13:46:34.850Z,97628.00
2018-04-22T13:49:02.463Z,97625.73
2018-04-22T13:51:30.072Z,97634.02
2018-04-22T13:53:57.665Z,97620.07
2018-04-22T13:56:25.280Z,97619.19
2018-04-22T13:58:52.882Z,97617.92
2018-04-22T14:01:20.490Z,97616.72
2018-04-22T14:03:48.075Z,97611.71
2018-04-22T14:06:15.833Z,97607.73
2018-04-22T14:08:43.422Z,97602.11
2018-04-22T14:11:11.688Z,97593.84
2018-04-22T14:13:39.359Z,97591.64
2018-04-22T14:16:06.927Z,97594.70
2018-04-22T14:18:34.539Z,97592.23
2018-04-22T14:21:02.228Z,97578.75
2018-04-22T14:23:29.855Z,97584.27
2018-04-22T14:25:57.450Z,97586.64
2018-04-22T14:28:25.042Z,97582.65
2018-04-22T14:30:52.654Z,97574.97
2018-04-22T14:33:20.259Z,97573.94
2018-04-22T14:35:47.893Z,97568.44
2018-04-22T14:38:15.518Z,97568.13
2018-04-22T14:40:43.218Z,97575.38
2018-04-22T14:43:10.821Z,97577.63
2018-04-22T14:45:50.410Z,97567.33
2018-04-22T14:48:18.023Z,97564.66
2018-04-22T14:50:45.660Z,97555.46
2018-04-22T14:53:13.363Z,97551.41
2018-04-22T14:55:40.949Z,97558.53
2018-04-22T14:58:08.562Z,97548.30
2018-04-22T15:00:36.164Z,97557.25
2018-04-22T15:03:04.162Z,97557.28
2018-04-22T15:05:31.746Z,97554.49
2018-04-22T15:07:59.427Z,97549.63
2018-04-22T15:10:27.228Z,97555.64
2018-04-22T15:12:54.815Z,97546.55
2018-04-22T15:15:22.428Z,97554.28
2018-04-22T15:17:50.043Z,97552.34
2018-04-22T15:20:17.795Z,97550.03
2018-04-22T15:22:45.391Z,97550.06
2018-04-22T15:25:12.993Z,97542.58
2018-04-22T15:27:40.605Z,97543.80
2018-04-22T15:30:08.193Z,97547.84
2018-04-22T15:32:35.802Z,97548.95
2018-04-22T15:35:03.405Z,97549.36
2018-04-22T15:37:31.026Z,97551.39
2018-04-22T15:39:58.626Z,97548.51
2018-04-22T15:42:26.227Z,97550.28
2018-04-22T15:44:53.842Z,97548.86
2018-04-22T15:47:21.436Z,97550.50
2018-04-22T15:49:49.239Z,97540.70
2018-04-22T15:52:16.832Z,97544.63
2018-04-22T15:54:44.432Z,97542.30
2018-04-22T15:57:12.046Z,97541.94
2018-04-22T15:59:39.636Z,97544.25
2018-04-22T16:02:07.463Z,97548.27
2018-04-22T16:04:35.055Z,97540.92
2018-04-22T16:07:02.653Z,97540.13
2018-04-22T16:09:30.284Z,97539.95
2018-04-22T16:11:57.876Z,97543.94
2018-04-22T16:14:25.553Z,97540.56
2018-04-22T16:16:53.105Z,97541.48
2018-04-22T16:19:20.738Z,97545.39
2018-04-22T16:21:48.335Z,97542.41
2018-04-22T16:24:16.007Z,97545.56
2018-04-22T16:26:43.710Z,97545.27
2018-04-22T16:29:11.298Z,97543.47
2018-04-22T16:31:38.940Z,97543.58
2018-04-22T16:34:06.606Z,97544.84
2018-04-22T16:36:34.412Z,97545.06
2018-04-22T16:39:02.028Z,97550.06
2018-04-22T16:41:29.627Z,97539.25
2018-04-22T16:43:57.289Z,97543.90
2018-04-22T16:46:24.886Z,97554.27
2018-04-22T16:48:52.500Z,97550.78
2018-04-22T16:51:20.090Z,97548.27
2018-04-22T16:53:47.859Z,97548.44
2018-04-22T16:56:15.517Z,97539.56
2018-04-22T16:58:43.115Z,97541.80
2018-04-22T17:01:10.726Z,97540.28
2018-04-22T17:03:38.317Z,97538.39
2018-04-22T17:06:05.957Z,97540.73
2018-04-22T17:08:33.608Z,97544.73
2018-04-22T17:11:01.228Z,97541.22
2018-04-22T17:13:28.824Z,97541.80
2018-04-22T17:15:56.426Z,97543.45
2018-04-22T17:18:24.041Z,97544.29
2018-04-22T17:20:51.634Z,97557.64
2018-04-22T17:23:19.246Z,97560.92
2018-04-22T17:25:46.835Z,97568.56
2018-04-22T17:28:14.474Z,97564.67
2018-04-22T17:30:42.072Z,97563.94
2018-04-22T17:33:09.670Z,97567.14
2018-04-22T17:35:37.288Z,97569.62
2018-04-22T17:38:04.878Z,97572.38
2018-04-22T17:40:32.490Z,97573.22
2018-04-22T17:43:00.084Z,97578.41
2018-04-22T17:45:27.714Z,97574.06
2018-04-22T17:47:55.317Z,97579.45
2018-04-22T17:50:22.914Z,97584.03
2018-04-22T17:52:50.526Z,97579.52
2018-04-22T17:55:18.365Z,97588.10
2018-04-22T17:57:45.981Z,97583.98
2018-04-22T18:00:13.581Z,97584.41
2018-04-22T18:02:41.219Z,97591.94
2018-04-22T18:05:08.810Z,97587.65
2018-04-22T18:07:36.399Z,97588.64
2018-04-22T18:10:04.026Z,97586.48
2018-04-22T18:12:31.699Z,97587.52
2018-04-22T18:14:59.325Z,97590.69
2018-04-22T18:17:26.920Z,97590.13
2018-04-22T18:19:54.568Z,97591.73
2018-04-22T18:22:22.163Z,97597.06
2018-04-22T18:24:49.762Z,97591.19
2018-04-22T18:27:17.382Z,97592.78
2018-04-22T18:29:44.975Z,97594.37
2018-04-22T18:32:12.592Z,97585.11
2018-04-22T18:34:40.183Z,97589.65
2018-04-22T18:37:07.818Z,97590.41
2018-04-22T18:39:35.422Z,97589.83
2018-04-22T18:42:03.051Z,97588.27
2018-04-22T18:44:30.727Z,97589.05
2018-04-22T18:46:58.335Z,97589.43
2018-04-22T18:49:26.147Z,97589.64
2018-04-22T18:51:53.743Z,97599.87
2018-04-22T18:54:21.339Z,97597.89
2018-04-22T18:56:48.960Z,97596.70
2018-04-22T18:59:16.584Z,97603.59
2018-04-22T19:01:44.193Z,97600.80
2018-04-22T19:04:11.781Z,97605.84
2018-04-22T19:06:39.521Z,97615.27
2018-04-22T19:09:07.125Z,97625.48
2018-04-22T19:11:34.736Z,97635.84
2018-04-22T19:14:02.366Z,97643.27
2018-04-22T19:16:29.963Z,97638.52
2018-04-22T19:18:57.584Z,97638.52
2018-04-22T19:21:25.189Z,97639.89
2018-04-22T19:23:52.841Z,97644.21
2018-04-22T19:26:20.476Z,97641.46
2018-04-22T19:28:48.077Z,97642.64
2018-04-22T19:31:15.695Z,97645.75
2018-04-22T19:33:43.289Z,97649.68
2018-04-22T19:36:10.936Z,97644.25
2018-04-22T19:38:38.526Z,97644.80
2018-04-22T19:41:06.324Z,97642.02
2018-04-22T19:43:33.922Z,97639.62
2018-04-22T19:46:01.519Z,97638.40
2018-04-22T19:48:29.142Z,97647.75
2018-04-22T19:50:56.736Z,97641.81
2018-04-22T19:53:24.368Z,97642.05
2018-04-22T19:55:51.966Z,97649.46
2018-04-22T19:58:19.592Z,97636.60
2018-04-22T20:00:47.187Z,97637.33
2018-04-22T20:03:14.841Z,97640.68
2018-04-22T20:05:42.432Z,97637.15
2018-04-22T20:08:10.063Z,97630.56
2018-04-22T20:10:37.701Z,97624.99
2018-04-22T20:13:05.310Z,97634.53
2018-04-22T20:15:32.999Z,97634.62
2018-04-22T20:18:00.573Z,97630.44
2018-04-22T20:20:28.233Z,97628.16
2018-04-22T20:22:55.826Z,97628.31
2018-04-22T20:25:23.427Z,97628.88
2018-04-22T20:27:51.062Z,97621.55
2018-04-22T20:30:18.653Z,97628.73
2018-04-22T20:32:46.276Z,97626.11
2018-04-22T20:35:13.903Z,97623.34
2018-04-22T20:37:41.543Z,97630.45
2018-04-22T20:40:09.136Z,97629.41
2018-04-22T20:42:36.750Z,97627.90
2018-04-22T20:45:04.441Z,97635.12
2018-04-22T20:47:32.045Z,97632.09
2018-04-22T20:49:59.667Z,97633.77
2018-04-22T20:52:27.263Z,97639.16
2018-04-22T20:54:55.201Z,97643.09
2018-04-22T20:57:22.795Z,97639.94
2018-04-22T20:59:50.390Z,97634.56
2018-04-22T21:02:18.000Z,97636.56
2018-04-22T21:04:45.597Z,97633.83
2018-04-22T21:07:13.255Z,97639.81
2018-04-22T21:09:40.866Z,97638.45
2018-04-22T21:12:08.736Z,97638.84
2018-04-22T21:14:36.339Z,97636.20
2018-04-22T21:17:03.942Z,97640.30
2018-04-22T21:19:31.623Z,97634.16
2018-04-22T21:21:59.218Z,97630.13
2018-04-22T21:24:26.847Z,97637.84
2018-04-22T21:26:54.438Z,97637.69
2018-04-22T21:29:22.029Z,97636.19
2018-04-22T21:31:49.639Z,97636.80
2018-04-22T21:34:17.239Z,97642.23
2018-04-22T21:36:44.867Z,97642.27
2018-04-22T21:39:12.473Z,97637.48
2018-04-22T21:41:40.237Z,97646.34
2018-04-22T21:44:07.846Z,97652.02
2018-04-22T21:46:35.438Z,97653.64
2018-04-22T21:49:03.066Z,97666.04
2018-04-22T21:51:30.657Z,97677.02
2018-04-22T21:53:58.280Z,97676.70
2018-04-22T21:56:25.874Z,97674.45
2018-04-22T21:58:53.710Z,97679.41
2018-04-22T22:01:21.310Z,97677.23
2018-04-22T22:03:48.919Z,97678.25
2018-04-22T22:06:16.603Z,97675.08
2018-04-22T22:08:44.192Z,97686.50
2018-04-22T22:11:11.813Z,97686.05
2018-04-22T22:13:39.402Z,97687.85
2018-04-22T22:16:07.023Z,97687.08
2018-04-22T22:18:34.627Z,97691.27
2018-04-22T22:21:02.358Z,97689.77
2018-04-22T22:23:29.947Z,97692.88
2018-04-22T22:25:57.555Z,97693.30
2018-04-22T22:28:25.174Z,97694.16
2018-04-22T22:30:52.784Z,97698.29
2018-04-22T22:33:20.411Z,97705.25
2018-04-22T22:35:48.006Z,97713.42
2018-04-22T22:38:15.796Z,97719.59
2018-04-22T22:40:43.409Z,97712.89
2018-04-22T22:43:11.005Z,97716.11
2018-04-22T22:45:38.619Z,97720.56
2018-04-22T22:48:06.214Z,97720.06
2018-04-22T22:50:33.835Z,97726.37
2018-04-22T22:53:01.428Z,97721.91
2018-04-22T22:55:29.227Z,97726.47
2018-04-22T22:57:56.827Z,97725.53
2018-04-22T23:00:24.427Z,97725.94
2018-04-22T23:02:52.060Z,97719.05
2018-04-22T23:05:19.658Z,97722.03
2018-04-22T23:07:47.342Z,97725.84
2018-04-22T23:10:14.942Z,97725.16
2018-04-22T23:12:42.575Z,97715.24
2018-04-22T23:15:10.182Z,97716.19
2018-04-22T23:17:37.764Z,97722.64
2018-04-22T23:20:05.398Z,97717.01
2018-04-22T23:22:32.986Z,97719.80
2018-04-22T23:25:00.606Z,97719.37
2018-04-22T23:27:28.196Z,97721.37
2018-04-22T23:29:56.104Z,97716.82
2018-04-22T23:32:23.746Z,97719.05
2018-04-22T23:34:51.309Z,97713.53
2018-04-22T23:37:18.929Z,97718.80
2018-04-22T23:39:46.516Z,97709.61
2018-04-22T23:42:14.139Z,97716.98
2018-04-22T23:44:41.737Z,97717.89
2018-04-22T23:47:09.527Z,97721.19
2018-04-22T23:49:37.111Z,97715.73
2018-04-22T23:52:04.711Z,97720.90
2018-04-22T23:54:32.326Z,97712.23
2018-04-22T23:56:59.914Z,97709.05
2018-04-22T23:59:27.535Z,97707.61
